sensor_id;sensor_type;location;lat;lon;timestamp;pressure;altitude;pressure_sealevel;temperature;humidity
22605;BME280;11469;49.024;8.246;2023-02-26T00:00:45;100108.63;;;0.26;66.30
22605;BME280;11469;49.024;8.246;2023-02-26T00:03:10;100105.28;;;0.29;66.56
22605;BME280;11469;49.024;8.246;2023-02-26T00:05:36;100099.91;;;0.38;66.60
22605;BME280;11469;49.024;8.246;2023-02-26T00:08:01;100102.00;;;0.27;66.32
22605;BME280;11469;49.024;8.246;2023-02-26T00:10:30;100101.19;;;0.08;67.47
22605;BME280;11469;49.024;8.246;2023-02-26T00:12:55;100098.31;;;-0.01;67.85
22605;BME280;11469;49.024;8.246;2023-02-26T00:15:21;100102.22;;;0.12;67.79
22605;BME280;11469;49.024;8.246;2023-02-26T00:18:08;100103.66;;;0.09;68.25
22605;BME280;11469;49.024;8.246;2023-02-26T00:20:35;100104.75;;;0.27;67.63
22605;BME280;11469;49.024;8.246;2023-02-26T00:23:01;100101.78;;;0.23;67.41
22605;BME280;11469;49.024;8.246;2023-02-26T00:25:26;100106.75;;;0.21;67.11
22605;BME280;11469;49.024;8.246;2023-02-26T00:27:52;100112.88;;;0.18;67.18
22605;BME280;11469;49.024;8.246;2023-02-26T00:30:18;100103.72;;;0.04;67.46
22605;BME280;11469;49.024;8.246;2023-02-26T00:32:43;100109.50;;;-0.11;68.57
22605;BME280;11469;49.024;8.246;2023-02-26T00:35:12;100107.75;;;-0.26;68.94
22605;BME280;11469;49.024;8.246;2023-02-26T00:40:37;100116.56;;;-0.24;68.88
22605;BME280;11469;49.024;8.246;2023-02-26T00:43:05;100111.34;;;-0.25;69.17
22605;BME280;11469;49.024;8.246;2023-02-26T00:45:31;100112.81;;;-0.33;69.91
22605;BME280;11469;49.024;8.246;2023-02-26T00:50:45;100109.94;;;-0.23;69.43
22605;BME280;11469;49.024;8.246;2023-02-26T00:53:26;100110.72;;;-0.41;70.39
22605;BME280;11469;49.024;8.246;2023-02-26T00:55:51;100113.53;;;-0.46;70.49
22605;BME280;11469;49.024;8.246;2023-02-26T00:58:17;100124.88;;;-0.48;71.09
22605;BME280;11469;49.024;8.246;2023-02-26T01:00:42;100123.06;;;-0.57;71.25
22605;BME280;11469;49.024;8.246;2023-02-26T01:03:08;100115.53;;;-0.71;71.57
22605;BME280;11469;49.024;8.246;2023-02-26T01:05:35;100119.91;;;-0.70;71.22
22605;BME280;11469;49.024;8.246;2023-02-26T01:08:11;100121.25;;;-0.67;71.04
22605;BME280;11469;49.024;8.246;2023-02-26T01:10:38;100109.31;;;-0.81;71.35
22605;BME280;11469;49.024;8.246;2023-02-26T01:13:04;100125.66;;;-0.66;71.54
22605;BME280;11469;49.024;8.246;2023-02-26T01:15:30;100117.13;;;-0.46;70.72
22605;BME280;11469;49.024;8.246;2023-02-26T01:18:15;100120.69;;;-0.45;70.51
22605;BME280;11469;49.024;8.246;2023-02-26T01:20:46;100121.06;;;-0.52;70.04
22605;BME280;11469;49.024;8.246;2023-02-26T01:23:19;100116.50;;;-0.61;70.47
22605;BME280;11469;49.024;8.246;2023-02-26T01:25:54;100116.16;;;-0.55;69.98
22605;BME280;11469;49.024;8.246;2023-02-26T01:28:22;100100.13;;;-0.72;70.92
22605;BME280;11469;49.024;8.246;2023-02-26T01:30:50;100105.03;;;-0.69;70.85
22605;BME280;11469;49.024;8.246;2023-02-26T01:33:28;100111.25;;;-0.58;70.67
22605;BME280;11469;49.024;8.246;2023-02-26T01:36:00;100108.84;;;-0.64;70.93
22605;BME280;11469;49.024;8.246;2023-02-26T01:38:40;100107.91;;;-0.79;71.50
22605;BME280;11469;49.024;8.246;2023-02-26T01:41:29;100118.56;;;-0.72;71.09
22605;BME280;11469;49.024;8.246;2023-02-26T01:44:09;100108.19;;;-0.80;71.25
22605;BME280;11469;49.024;8.246;2023-02-26T01:49:13;100115.00;;;-0.73;70.64
22605;BME280;11469;49.024;8.246;2023-02-26T01:51:59;100114.06;;;-0.87;71.10
22605;BME280;11469;49.024;8.246;2023-02-26T01:54:31;100116.88;;;-0.92;71.53
22605;BME280;11469;49.024;8.246;2023-02-26T01:57:17;100114.72;;;-0.95;71.81
22605;BME280;11469;49.024;8.246;2023-02-26T01:59:46;100104.50;;;-0.94;71.10
22605;BME280;11469;49.024;8.246;2023-02-26T02:02:15;100112.63;;;-1.03;71.87
22605;BME280;11469;49.024;8.246;2023-02-26T02:04:42;100113.97;;;-1.01;71.79
22605;BME280;11469;49.024;8.246;2023-02-26T02:07:09;100120.56;;;-1.02;71.57
22605;BME280;11469;49.024;8.246;2023-02-26T02:09:34;100110.19;;;-0.86;70.85
22605;BME280;11469;49.024;8.246;2023-02-26T02:14:42;100121.91;;;-0.99;71.29
22605;BME280;11469;49.024;8.246;2023-02-26T02:17:51;100118.06;;;-0.98;71.13
22605;BME280;11469;49.024;8.246;2023-02-26T02:29:01;100124.72;;;-0.80;70.54
22605;BME280;11469;49.024;8.246;2023-02-26T02:31:54;100127.00;;;-0.87;70.81
22605;BME280;11469;49.024;8.246;2023-02-26T02:34:43;100123.38;;;-0.83;70.59
22605;BME280;11469;49.024;8.246;2023-02-26T02:37:21;100122.25;;;-0.82;70.42
22605;BME280;11469;49.024;8.246;2023-02-26T02:39:56;100131.09;;;-0.85;70.71
22605;BME280;11469;49.024;8.246;2023-02-26T02:42:29;100134.47;;;-0.93;71.16
22605;BME280;11469;49.024;8.246;2023-02-26T02:45:08;100136.06;;;-0.87;71.06
22605;BME280;11469;49.024;8.246;2023-02-26T02:47:39;100142.72;;;-0.93;71.39
22605;BME280;11469;49.024;8.246;2023-02-26T02:50:15;100134.72;;;-0.89;71.52
22605;BME280;11469;49.024;8.246;2023-02-26T02:52:49;100135.81;;;-0.90;71.48
22605;BME280;11469;49.024;8.246;2023-02-26T02:55:23;100139.09;;;-0.88;71.62
22605;BME280;11469;49.024;8.246;2023-02-26T02:57:54;100141.03;;;-0.89;71.59
22605;BME280;11469;49.024;8.246;2023-02-26T03:00:26;100138.34;;;-0.94;71.85
22605;BME280;11469;49.024;8.246;2023-02-26T03:03:25;100142.69;;;-0.88;71.87
22605;BME280;11469;49.024;8.246;2023-02-26T03:05:52;100143.75;;;-0.84;72.00
22605;BME280;11469;49.024;8.246;2023-02-26T03:08:21;100145.19;;;-0.91;72.11
22605;BME280;11469;49.024;8.246;2023-02-26T03:10:48;100147.06;;;-0.87;72.55
22605;BME280;11469;49.024;8.246;2023-02-26T03:13:21;100142.44;;;-0.91;72.64
22605;BME280;11469;49.024;8.246;2023-02-26T03:16:12;100153.44;;;-0.91;73.06
22605;BME280;11469;49.024;8.246;2023-02-26T03:22:18;100161.94;;;-0.88;72.83
22605;BME280;11469;49.024;8.246;2023-02-26T03:27:02;100167.88;;;-0.99;73.90
22605;BME280;11469;49.024;8.246;2023-02-26T03:32:36;100167.75;;;-0.89;73.99
22605;BME280;11469;49.024;8.246;2023-02-26T03:35:13;100176.28;;;-0.91;73.95
22605;BME280;11469;49.024;8.246;2023-02-26T03:37:44;100173.81;;;-0.92;74.12
22605;BME280;11469;49.024;8.246;2023-02-26T03:40:25;100169.09;;;-0.87;74.40
22605;BME280;11469;49.024;8.246;2023-02-26T03:43:03;100173.47;;;-0.86;74.63
22605;BME280;11469;49.024;8.246;2023-02-26T03:45:33;100173.25;;;-0.89;74.68
22605;BME280;11469;49.024;8.246;2023-02-26T03:48:00;100180.09;;;-0.87;74.57
22605;BME280;11469;49.024;8.246;2023-02-26T03:50:40;100185.31;;;-0.85;74.69
22605;BME280;11469;49.024;8.246;2023-02-26T03:53:11;100187.75;;;-0.84;75.22
22605;BME280;11469;49.024;8.246;2023-02-26T03:55:48;100186.06;;;-0.80;74.92
22605;BME280;11469;49.024;8.246;2023-02-26T03:58:15;100194.03;;;-0.78;75.29
22605;BME280;11469;49.024;8.246;2023-02-26T04:00:43;100195.97;;;-0.79;75.12
22605;BME280;11469;49.024;8.246;2023-02-26T04:05:38;100189.06;;;-0.76;75.25
22605;BME280;11469;49.024;8.246;2023-02-26T04:08:06;100195.69;;;-0.77;75.06
22605;BME280;11469;49.024;8.246;2023-02-26T04:10:46;100202.53;;;-0.75;75.09
22605;BME280;11469;49.024;8.246;2023-02-26T04:13:15;100197.03;;;-0.75;75.34
22605;BME280;11469;49.024;8.246;2023-02-26T04:15:41;100190.72;;;-0.75;75.37
22605;BME280;11469;49.024;8.246;2023-02-26T04:18:06;100196.22;;;-0.75;75.40
22605;BME280;11469;49.024;8.246;2023-02-26T04:20:32;100211.91;;;-0.76;75.64
22605;BME280;11469;49.024;8.246;2023-02-26T04:22:57;100210.56;;;-0.78;75.78
22605;BME280;11469;49.024;8.246;2023-02-26T04:25:22;100206.09;;;-0.74;75.84
22605;BME280;11469;49.024;8.246;2023-02-26T04:27:48;100200.91;;;-0.76;75.86
22605;BME280;11469;49.024;8.246;2023-02-26T04:30:13;100209.16;;;-0.76;75.92
22605;BME280;11469;49.024;8.246;2023-02-26T04:32:39;100202.53;;;-0.75;75.94
22605;BME280;11469;49.024;8.246;2023-02-26T04:35:04;100216.00;;;-0.73;75.78
22605;BME280;11469;49.024;8.246;2023-02-26T04:37:29;100223.72;;;-0.75;75.65
22605;BME280;11469;49.024;8.246;2023-02-26T04:39:55;100218.53;;;-0.77;76.10
22605;BME280;11469;49.024;8.246;2023-02-26T04:42:20;100221.56;;;-0.78;76.05
22605;BME280;11469;49.024;8.246;2023-02-26T04:44:46;100222.44;;;-0.83;76.18
22605;BME280;11469;49.024;8.246;2023-02-26T04:47:11;100227.13;;;-0.83;76.31
22605;BME280;11469;49.024;8.246;2023-02-26T04:49:36;100228.22;;;-0.84;76.61
22605;BME280;11469;49.024;8.246;2023-02-26T04:52:03;100227.44;;;-0.90;76.84
22605;BME280;11469;49.024;8.246;2023-02-26T04:54:28;100235.41;;;-0.88;76.82
22605;BME280;11469;49.024;8.246;2023-02-26T04:56:53;100223.59;;;-0.89;76.92
22605;BME280;11469;49.024;8.246;2023-02-26T04:59:19;100232.72;;;-0.93;77.21
22605;BME280;11469;49.024;8.246;2023-02-26T05:01:44;100227.00;;;-0.97;77.43
22605;BME280;11469;49.024;8.246;2023-02-26T05:04:09;100232.25;;;-1.01;77.83
22605;BME280;11469;49.024;8.246;2023-02-26T05:06:35;100230.56;;;-0.96;77.78
22605;BME280;11469;49.024;8.246;2023-02-26T05:09:00;100239.09;;;-0.98;77.72
22605;BME280;11469;49.024;8.246;2023-02-26T05:11:25;100231.44;;;-1.01;78.32
22605;BME280;11469;49.024;8.246;2023-02-26T05:13:51;100241.09;;;-1.04;78.23
22605;BME280;11469;49.024;8.246;2023-02-26T05:16:16;100241.91;;;-1.03;78.49
22605;BME280;11469;49.024;8.246;2023-02-26T05:18:42;100247.97;;;-1.06;78.66
22605;BME280;11469;49.024;8.246;2023-02-26T05:21:07;100248.81;;;-1.06;78.70
22605;BME280;11469;49.024;8.246;2023-02-26T05:23:33;100247.69;;;-1.05;78.80
22605;BME280;11469;49.024;8.246;2023-02-26T05:25:58;100244.94;;;-1.05;79.00
22605;BME280;11469;49.024;8.246;2023-02-26T05:28:25;100254.59;;;-1.07;79.19
22605;BME280;11469;49.024;8.246;2023-02-26T05:30:50;100258.44;;;-1.08;79.18
22605;BME280;11469;49.024;8.246;2023-02-26T05:33:16;100256.00;;;-1.10;79.66
22605;BME280;11469;49.024;8.246;2023-02-26T05:35:41;100259.84;;;-1.11;79.71
22605;BME280;11469;49.024;8.246;2023-02-26T05:38:07;100264.53;;;-1.11;79.59
22605;BME280;11469;49.024;8.246;2023-02-26T05:40:32;100268.91;;;-1.10;80.02
22605;BME280;11469;49.024;8.246;2023-02-26T05:42:58;100269.78;;;-1.15;80.52
22605;BME280;11469;49.024;8.246;2023-02-26T05:45:23;100262.97;;;-1.22;80.62
22605;BME280;11469;49.024;8.246;2023-02-26T05:47:48;100265.72;;;-1.22;80.71
22605;BME280;11469;49.024;8.246;2023-02-26T05:50:14;100268.72;;;-1.19;80.84
22605;BME280;11469;49.024;8.246;2023-02-26T05:52:39;100273.13;;;-1.23;80.63
22605;BME280;11469;49.024;8.246;2023-02-26T05:55:05;100272.59;;;-1.25;80.79
22605;BME280;11469;49.024;8.246;2023-02-26T05:57:31;100272.88;;;-1.26;80.87
22605;BME280;11469;49.024;8.246;2023-02-26T05:59:56;100276.47;;;-1.26;80.62
22605;BME280;11469;49.024;8.246;2023-02-26T06:02:22;100278.69;;;-1.28;81.09
22605;BME280;11469;49.024;8.246;2023-02-26T06:04:47;100276.47;;;-1.26;81.11
22605;BME280;11469;49.024;8.246;2023-02-26T06:07:13;100277.84;;;-1.28;80.93
22605;BME280;11469;49.024;8.246;2023-02-26T06:09:38;100286.13;;;-1.34;81.28
22605;BME280;11469;49.024;8.246;2023-02-26T06:12:03;100294.94;;;-1.37;81.23
22605;BME280;11469;49.024;8.246;2023-02-26T06:14:30;100309.53;;;-1.36;81.35
22605;BME280;11469;49.024;8.246;2023-02-26T06:16:55;100302.09;;;-1.36;81.45
22605;BME280;11469;49.024;8.246;2023-02-26T06:19:21;100312.28;;;-1.36;81.52
22605;BME280;11469;49.024;8.246;2023-02-26T06:21:46;100317.78;;;-1.36;81.23
22605;BME280;11469;49.024;8.246;2023-02-26T06:24:12;100321.06;;;-1.34;81.66
22605;BME280;11469;49.024;8.246;2023-02-26T06:26:37;100334.00;;;-1.35;81.71
22605;BME280;11469;49.024;8.246;2023-02-26T06:29:03;100332.88;;;-1.34;81.90
22605;BME280;11469;49.024;8.246;2023-02-26T06:31:28;100341.41;;;-1.35;82.05
22605;BME280;11469;49.024;8.246;2023-02-26T06:33:53;100346.91;;;-1.35;82.02
22605;BME280;11469;49.024;8.246;2023-02-26T06:36:19;100342.50;;;-1.31;81.85
22605;BME280;11469;49.024;8.246;2023-02-26T06:38:45;100343.88;;;-1.34;82.63
22605;BME280;11469;49.024;8.246;2023-02-26T06:41:11;100349.63;;;-1.30;82.21
22605;BME280;11469;49.024;8.246;2023-02-26T06:43:37;100362.56;;;-1.30;82.51
22605;BME280;11469;49.024;8.246;2023-02-26T06:46:02;100360.09;;;-1.32;82.73
22605;BME280;11469;49.024;8.246;2023-02-26T06:48:28;100361.75;;;-1.31;82.72
22605;BME280;11469;49.024;8.246;2023-02-26T06:50:53;100366.97;;;-1.29;82.78
22605;BME280;11469;49.024;8.246;2023-02-26T06:53:19;100366.97;;;-1.35;83.36
22605;BME280;11469;49.024;8.246;2023-02-26T06:55:45;100370.00;;;-1.31;83.14
22605;BME280;11469;49.024;8.246;2023-02-26T06:58:12;100378.81;;;-1.34;83.32
22605;BME280;11469;49.024;8.246;2023-02-26T07:00:38;100385.41;;;-1.35;83.55
22605;BME280;11469;49.024;8.246;2023-02-26T07:03:05;100387.88;;;-1.34;83.60
22605;BME280;11469;49.024;8.246;2023-02-26T07:05:31;100386.22;;;-1.35;83.84
22605;BME280;11469;49.024;8.246;2023-02-26T07:07:56;100395.31;;;-1.39;84.25
22605;BME280;11469;49.024;8.246;2023-02-26T07:10:21;100397.50;;;-1.36;84.50
22605;BME280;11469;49.024;8.246;2023-02-26T07:12:49;100410.44;;;-1.37;84.44
22605;BME280;11469;49.024;8.246;2023-02-26T07:15:14;100409.63;;;-1.37;84.41
22605;BME280;11469;49.024;8.246;2023-02-26T07:17:40;100421.16;;;-1.35;84.63
22605;BME280;11469;49.024;8.246;2023-02-26T07:20:06;100423.06;;;-1.30;84.66
22605;BME280;11469;49.024;8.246;2023-02-26T07:22:37;100422.22;;;-1.31;84.73
22605;BME280;11469;49.024;8.246;2023-02-26T07:25:03;100422.50;;;-1.27;84.28
22605;BME280;11469;49.024;8.246;2023-02-26T07:27:30;100426.31;;;-1.18;84.40
22605;BME280;11469;49.024;8.246;2023-02-26T07:29:56;100441.38;;;-1.11;84.11
22605;BME280;11469;49.024;8.246;2023-02-26T07:32:24;100429.00;;;-1.08;83.84
22605;BME280;11469;49.024;8.246;2023-02-26T07:34:49;100437.50;;;-1.05;83.57
22605;BME280;11469;49.024;8.246;2023-02-26T07:37:14;100447.66;;;-1.00;83.70
22605;BME280;11469;49.024;8.246;2023-02-26T07:39:40;100444.06;;;-0.95;83.57
22605;BME280;11469;49.024;8.246;2023-02-26T07:42:05;100441.81;;;-0.93;83.82
22605;BME280;11469;49.024;8.246;2023-02-26T07:44:30;100443.44;;;-0.87;83.15
22605;BME280;11469;49.024;8.246;2023-02-26T07:46:56;100445.31;;;-0.78;83.13
22605;BME280;11469;49.024;8.246;2023-02-26T07:49:22;100449.91;;;-0.68;82.99
22605;BME280;11469;49.024;8.246;2023-02-26T07:51:48;100452.69;;;-0.68;82.20
22605;BME280;11469;49.024;8.246;2023-02-26T07:54:14;100446.31;;;-0.63;82.15
22605;BME280;11469;49.024;8.246;2023-02-26T07:56:40;100451.78;;;-0.58;81.91
22605;BME280;11469;49.024;8.246;2023-02-26T07:59:07;100445.72;;;-0.55;81.12
22605;BME280;11469;49.024;8.246;2023-02-26T08:01:33;100450.41;;;-0.56;81.35
22605;BME280;11469;49.024;8.246;2023-02-26T08:03:58;100459.44;;;-0.50;81.08
22605;BME280;11469;49.024;8.246;2023-02-26T08:06:24;100452.19;;;-0.41;81.40
22605;BME280;11469;49.024;8.246;2023-02-26T08:08:49;100453.75;;;-0.30;81.12
22605;BME280;11469;49.024;8.246;2023-02-26T08:11:14;100459.78;;;-0.28;80.70
22605;BME280;11469;49.024;8.246;2023-02-26T08:13:40;100457.03;;;-0.28;80.41
22605;BME280;11469;49.024;8.246;2023-02-26T08:16:05;100474.84;;;-0.15;80.26
22605;BME280;11469;49.024;8.246;2023-02-26T08:18:31;100461.09;;;-0.20;79.45
22605;BME280;11469;49.024;8.246;2023-02-26T08:20:56;100458.59;;;-0.17;79.16
22605;BME280;11469;49.024;8.246;2023-02-26T08:23:22;100469.28;;;-0.10;78.60
22605;BME280;11469;49.024;8.246;2023-02-26T08:25:47;100450.41;;;0.02;78.12
22605;BME280;11469;49.024;8.246;2023-02-26T08:28:13;100462.97;;;-0.11;77.62
22605;BME280;11469;49.024;8.246;2023-02-26T08:30:39;100471.19;;;-0.06;78.38
22605;BME280;11469;49.024;8.246;2023-02-26T08:33:04;100469.69;;;0.02;77.44
22605;BME280;11469;49.024;8.246;2023-02-26T08:35:30;100466.06;;;0.07;76.94
22605;BME280;11469;49.024;8.246;2023-02-26T08:37:55;100473.72;;;0.15;77.77
22605;BME280;11469;49.024;8.246;2023-02-26T08:40:21;100477.09;;;0.07;76.92
22605;BME280;11469;49.024;8.246;2023-02-26T08:42:46;100475.94;;;0.13;77.37
22605;BME280;11469;49.024;8.246;2023-02-26T08:45:12;100478.84;;;0.26;76.24
22605;BME280;11469;49.024;8.246;2023-02-26T08:47:37;100478.56;;;0.28;75.98
22605;BME280;11469;49.024;8.246;2023-02-26T08:50:06;100487.41;;;0.25;76.46
22605;BME280;11469;49.024;8.246;2023-02-26T08:52:32;100493.34;;;0.37;76.05
22605;BME280;11469;49.024;8.246;2023-02-26T08:54:58;100490.75;;;0.22;76.98
22605;BME280;11469;49.024;8.246;2023-02-26T08:57:23;100496.16;;;0.32;76.07
22605;BME280;11469;49.024;8.246;2023-02-26T08:59:49;100490.88;;;0.36;76.11
22605;BME280;11469;49.024;8.246;2023-02-26T09:02:14;100499.75;;;0.32;75.88
22605;BME280;11469;49.024;8.246;2023-02-26T09:04:39;100498.63;;;0.33;75.78
22605;BME280;11469;49.024;8.246;2023-02-26T09:07:05;100496.97;;;0.32;75.74
22605;BME280;11469;49.024;8.246;2023-02-26T09:09:30;100510.59;;;0.48;75.94
22605;BME280;11469;49.024;8.246;2023-02-26T09:11:55;100504.88;;;0.44;75.24
22605;BME280;11469;49.024;8.246;2023-02-26T09:14:21;100509.44;;;0.78;74.55
22605;BME280;11469;49.024;8.246;2023-02-26T09:16:47;100517.41;;;0.79;73.80
22605;BME280;11469;49.024;8.246;2023-02-26T09:19:12;100508.91;;;0.76;75.51
22605;BME280;11469;49.024;8.246;2023-02-26T09:21:38;100522.63;;;0.57;75.71
22605;BME280;11469;49.024;8.246;2023-02-26T09:24:03;100520.34;;;0.64;75.57
22605;BME280;11469;49.024;8.246;2023-02-26T09:26:29;100527.03;;;0.58;74.52
22605;BME280;11469;49.024;8.246;2023-02-26T09:28:54;100531.84;;;0.71;74.75
22605;BME280;11469;49.024;8.246;2023-02-26T09:31:19;100526.47;;;0.85;74.68
22605;BME280;11469;49.024;8.246;2023-02-26T09:33:45;100523.53;;;0.76;72.50
22605;BME280;11469;49.024;8.246;2023-02-26T09:36:10;100522.66;;;0.81;72.43
22605;BME280;11469;49.024;8.246;2023-02-26T09:38:36;100516.47;;;0.89;72.50
22605;BME280;11469;49.024;8.246;2023-02-26T09:51:37;100520.84;;;1.14;70.57
22605;BME280;11469;49.024;8.246;2023-02-26T09:54:13;100528.84;;;1.15;70.73
22605;BME280;11469;49.024;8.246;2023-02-26T09:56:40;100533.94;;;1.03;70.44
22605;BME280;11469;49.024;8.246;2023-02-26T09:59:08;100535.88;;;1.03;70.55
22605;BME280;11469;49.024;8.246;2023-02-26T10:01:44;100529.84;;;1.00;70.56
22605;BME280;11469;49.024;8.246;2023-02-26T10:07:01;100533.88;;;1.32;70.41
22605;BME280;11469;49.024;8.246;2023-02-26T10:12:17;100534.16;;;1.30;70.23
22605;BME280;11469;49.024;8.246;2023-02-26T10:17:34;100541.50;;;1.16;70.90
22605;BME280;11469;49.024;8.246;2023-02-26T10:20:19;100557.25;;;1.16;68.84
22605;BME280;11469;49.024;8.246;2023-02-26T10:25:35;100555.56;;;1.20;69.44
22605;BME280;11469;49.024;8.246;2023-02-26T10:28:19;100550.25;;;1.23;68.75
22605;BME280;11469;49.024;8.246;2023-02-26T10:31:34;100544.28;;;1.16;68.44
22605;BME280;11469;49.024;8.246;2023-02-26T10:36:46;100563.25;;;1.23;68.58
22605;BME280;11469;49.024;8.246;2023-02-26T10:39:18;100553.91;;;1.19;68.28
22605;BME280;11469;49.024;8.246;2023-02-26T10:41:45;100555.03;;;1.18;68.96
22605;BME280;11469;49.024;8.246;2023-02-26T10:47:16;100568.66;;;1.09;68.72
22605;BME280;11469;49.024;8.246;2023-02-26T10:49:51;100565.66;;;1.06;69.36
22605;BME280;11469;49.024;8.246;2023-02-26T10:52:24;100562.94;;;1.24;68.69
22605;BME280;11469;49.024;8.246;2023-02-26T10:57:43;100569.69;;;1.37;68.79
22605;BME280;11469;49.024;8.246;2023-02-26T11:00:18;100573.50;;;1.41;68.56
22605;BME280;11469;49.024;8.246;2023-02-26T11:02:46;100573.41;;;1.46;68.75
22605;BME280;11469;49.024;8.246;2023-02-26T11:05:25;100577.00;;;1.47;68.05
22605;BME280;11469;49.024;8.246;2023-02-26T11:07:54;100577.59;;;1.44;67.37
22605;BME280;11469;49.024;8.246;2023-02-26T11:10:26;100568.72;;;1.47;67.89
22605;BME280;11469;49.024;8.246;2023-02-26T11:12:52;100581.41;;;1.48;67.88
22605;BME280;11469;49.024;8.246;2023-02-26T11:15:20;100580.97;;;1.59;67.45
22605;BME280;11469;49.024;8.246;2023-02-26T11:17:53;100583.66;;;1.64;66.95
22605;BME280;11469;49.024;8.246;2023-02-26T11:20:41;100580.75;;;1.56;66.58
22605;BME280;11469;49.024;8.246;2023-02-26T11:23:12;100590.75;;;1.52;66.96
22605;BME280;11469;49.024;8.246;2023-02-26T11:25:39;100583.94;;;1.44;67.00
22605;BME280;11469;49.024;8.246;2023-02-26T11:28:09;100585.81;;;1.49;66.32
22605;BME280;11469;49.024;8.246;2023-02-26T11:30:43;100589.50;;;1.63;66.61
22605;BME280;11469;49.024;8.246;2023-02-26T11:33:27;100587.97;;;1.52;67.16
22605;BME280;11469;49.024;8.246;2023-02-26T11:36:02;100587.03;;;1.61;67.08
22605;BME280;11469;49.024;8.246;2023-02-26T11:38:30;100581.66;;;1.70;67.45
22605;BME280;11469;49.024;8.246;2023-02-26T11:40:57;100595.47;;;1.70;66.84
22605;BME280;11469;49.024;8.246;2023-02-26T11:43:25;100587.63;;;1.58;66.91
22605;BME280;11469;49.024;8.246;2023-02-26T11:45:58;100595.63;;;1.79;66.26
22605;BME280;11469;49.024;8.246;2023-02-26T11:48:39;100595.69;;;1.74;66.46
22605;BME280;11469;49.024;8.246;2023-02-26T11:51:07;100592.34;;;1.77;65.44
22605;BME280;11469;49.024;8.246;2023-02-26T11:56:14;100596.28;;;2.08;65.51
22605;BME280;11469;49.024;8.246;2023-02-26T11:58:45;100591.28;;;1.91;65.04
22605;BME280;11469;49.024;8.246;2023-02-26T12:01:12;100593.97;;;1.96;64.91
22605;BME280;11469;49.024;8.246;2023-02-26T12:03:41;100599.19;;;1.98;65.27
22605;BME280;11469;49.024;8.246;2023-02-26T12:06:19;100600.97;;;2.08;65.46
22605;BME280;11469;49.024;8.246;2023-02-26T12:08:46;100595.97;;;1.91;65.02
22605;BME280;11469;49.024;8.246;2023-02-26T12:17:34;100590.88;;;2.17;65.42
22605;BME280;11469;49.024;8.246;2023-02-26T12:20:17;100598.38;;;2.16;65.83
22605;BME280;11469;49.024;8.246;2023-02-26T12:39:42;100595.59;;;1.97;65.45
22605;BME280;11469;49.024;8.246;2023-02-26T12:42:23;100596.44;;;1.98;65.10
22605;BME280;11469;49.024;8.246;2023-02-26T12:45:09;100588.56;;;2.05;64.87
22605;BME280;11469;49.024;8.246;2023-02-26T12:50:55;100594.47;;;2.17;65.62
22605;BME280;11469;49.024;8.246;2023-02-26T13:01:48;100597.09;;;2.41;63.87
22605;BME280;11469;49.024;8.246;2023-02-26T13:07:02;100599.53;;;2.29;62.39
22605;BME280;11469;49.024;8.246;2023-02-26T13:20:34;100600.22;;;2.53;61.25
22605;BME280;11469;49.024;8.246;2023-02-26T13:23:17;100591.13;;;2.66;60.43
22605;BME280;11469;49.024;8.246;2023-02-26T13:25:50;100601.16;;;2.62;59.63
22605;BME280;11469;49.024;8.246;2023-02-26T13:31:06;100587.97;;;2.73;60.14
22605;BME280;11469;49.024;8.246;2023-02-26T13:33:33;100592.50;;;2.83;60.26
22605;BME280;11469;49.024;8.246;2023-02-26T13:36:00;100595.66;;;2.90;59.25
22605;BME280;11469;49.024;8.246;2023-02-26T13:38:37;100579.47;;;2.70;58.48
22605;BME280;11469;49.024;8.246;2023-02-26T13:44:13;100586.53;;;2.76;57.38
22605;BME280;11469;49.024;8.246;2023-02-26T13:52:29;100590.44;;;2.88;57.39
22605;BME280;11469;49.024;8.246;2023-02-26T13:54:55;100586.84;;;2.88;57.95
22605;BME280;11469;49.024;8.246;2023-02-26T13:57:48;100583.47;;;2.91;58.07
22605;BME280;11469;49.024;8.246;2023-02-26T14:00:27;100591.78;;;2.77;56.78
22605;BME280;11469;49.024;8.246;2023-02-26T14:03:11;100596.47;;;2.90;56.51
22605;BME280;11469;49.024;8.246;2023-02-26T14:10:56;100592.69;;;3.00;55.44
22605;BME280;11469;49.024;8.246;2023-02-26T14:13:32;100595.47;;;3.00;55.57
22605;BME280;11469;49.024;8.246;2023-02-26T14:16:00;100594.03;;;3.03;55.40
22605;BME280;11469;49.024;8.246;2023-02-26T14:24:43;100613.00;;;2.82;54.95
22605;BME280;11469;49.024;8.246;2023-02-26T14:26:49;100621.91;;;2.92;55.33
22605;BME280;11469;49.024;8.246;2023-02-26T14:29:20;100613.41;;;2.89;55.12
22605;BME280;11469;49.024;8.246;2023-02-26T14:34:14;100624.09;;;2.95;56.03
22605;BME280;11469;49.024;8.246;2023-02-26T14:36:57;100639.25;;;2.98;55.22
22605;BME280;11469;49.024;8.246;2023-02-26T14:39:40;100638.34;;;3.03;54.83
22605;BME280;11469;49.024;8.246;2023-02-26T14:42:12;100635.25;;;2.90;54.38
22605;BME280;11469;49.024;8.246;2023-02-26T14:44:42;100642.94;;;2.93;54.26
22605;BME280;11469;49.024;8.246;2023-02-26T14:47:09;100637.94;;;2.82;54.10
22605;BME280;11469;49.024;8.246;2023-02-26T14:49:38;100641.00;;;2.94;54.65
22605;BME280;11469;49.024;8.246;2023-02-26T14:55:02;100632.78;;;2.89;55.35
22605;BME280;11469;49.024;8.246;2023-02-26T15:00:35;100643.47;;;2.95;54.11
22605;BME280;11469;49.024;8.246;2023-02-26T15:25:15;100661.84;;;3.05;56.18
22605;BME280;11469;49.024;8.246;2023-02-26T15:27:41;100663.47;;;3.06;55.48
22605;BME280;11469;49.024;8.246;2023-02-26T15:30:08;100658.66;;;2.98;54.88
22605;BME280;11469;49.024;8.246;2023-02-26T15:32:37;100674.34;;;3.03;55.33
22605;BME280;11469;49.024;8.246;2023-02-26T15:37:47;100663.25;;;2.89;54.22
22605;BME280;11469;49.024;8.246;2023-02-26T15:40:13;100668.38;;;2.95;54.65
22605;BME280;11469;49.024;8.246;2023-02-26T15:42:40;100665.19;;;2.88;54.34
22605;BME280;11469;49.024;8.246;2023-02-26T15:45:19;100658.31;;;2.86;54.38
22605;BME280;11469;49.024;8.246;2023-02-26T15:47:53;100678.22;;;2.88;54.18
22605;BME280;11469;49.024;8.246;2023-02-26T15:50:26;100679.53;;;2.90;54.48
22605;BME280;11469;49.024;8.246;2023-02-26T15:52:56;100673.50;;;2.88;55.04
22605;BME280;11469;49.024;8.246;2023-02-26T15:55:22;100676.78;;;2.90;54.85